Time;durP1;ratioP1;P1;durP2;ratioP2;P2;SDS_P1;SDS_P2;PMS_P1;PMS_P2;Temp;Humidity;BMP_temperature;BMP_pressure;BME280_temperature;BME280_humidity;BME280_pressure;Samples;Min_cycle;Max_cycle;Signal;HPM_P1;HPM_P2
2024/02/03 00:01:33;;;;;;;;;;;;;;;5.72;100.00;101070.75;4890466;29;19931;-92
2024/02/03 00:03:59;;;;;;;;;;;;;;;5.69;100.00;101064.63;4889268;29;20010;-82
2024/02/03 00:06:24;;;;;;;;;;;;;;;5.71;100.00;101068.13;4908183;29;20367;-89
2024/02/03 00:08:49;;;;;;;;;;;;;;;5.69;100.00;101070.75;4908388;29;19919;-82
2024/02/03 00:11:14;;;;;;;;;;;;;;;5.67;100.00;101082.16;4907835;29;20006;-86
2024/02/03 00:13:40;;;;;;;;;;;;;;;5.71;100.00;101079.53;4892471;29;19923;-84
2024/02/03 00:16:06;;;;;;;;;;;;;;;5.69;100.00;101080.41;4891134;29;19923;-81
2024/02/03 00:18:31;;;;;;;;;;;;;;;5.72;100.00;101075.13;4890412;29;19923;-83
2024/02/03 00:20:57;;;;;;;;;;;;;;;5.58;100.00;101077.78;4908744;29;19981;-79
2024/02/03 00:23:22;;;;;;;;;;;;;;;5.62;100.00;101090.94;4907087;29;19923;-88
2024/02/03 00:25:47;;;;;;;;;;;;;;;5.68;100.00;101089.16;4905954;29;19962;-81
2024/02/03 00:28:15;;;;;;;;;;;;;;;5.67;100.00;101087.44;4908113;29;19919;-82
2024/02/03 00:30:40;;;;;;;;;;;;;;;5.71;100.00;101078.63;4907798;29;20408;-81
2024/02/03 00:33:06;;;;;;;;;;;;;;;5.71;100.00;101070.75;4906708;29;20018;-82
2024/02/03 00:35:31;;;;;;;;;;;;;;;5.71;100.00;101078.63;4907390;29;19922;-82
2024/02/03 00:37:56;;;;;;;;;;;;;;;5.74;100.00;101073.38;4890620;29;19919;-83
2024/02/03 00:40:21;;;;;;;;;;;;;;;5.72;100.00;101077.78;4908017;29;19931;-80
2024/02/03 00:42:49;;;;;;;;;;;;;;;5.76;100.00;101071.59;4908124;29;19919;-80
2024/02/03 00:45:14;;;;;;;;;;;;;;;5.70;100.00;101074.28;4906889;29;19920;-80
2024/02/03 00:47:39;;;;;;;;;;;;;;;5.64;100.00;101068.13;4906799;29;19927;-80
2024/02/03 00:50:05;;;;;;;;;;;;;;;5.71;100.00;101062.84;4907633;29;19958;-80
2024/02/03 00:52:31;;;;;;;;;;;;;;;5.66;100.00;101059.38;4905968;29;19920;-80
2024/02/03 06:20:43;;;;;;;;;;;;;;;5.72;100.00;100959.44;4913651;23;19931;-78
2024/02/03 06:23:09;;;;;;;;;;;;;;;5.71;100.00;100963.81;4925019;29;20018;-79
2024/02/03 06:25:34;;;;;;;;;;;;;;;5.74;100.00;100960.28;4925270;29;20105;-80
2024/02/03 06:27:59;;;;;;;;;;;;;;;5.71;100.00;100963.81;4931825;29;19930;-78
2024/02/03 06:30:26;;;;;;;;;;;;;;;5.66;100.00;100968.19;4925007;29;19919;-79
2024/02/03 06:32:52;;;;;;;;;;;;;;;5.70;100.00;100961.19;4924984;29;19922;-78
2024/02/03 06:35:17;;;;;;;;;;;;;;;5.69;100.00;100964.69;4924170;29;20282;-79
2024/02/03 06:37:42;;;;;;;;;;;;;;;5.74;100.00;100965.53;4924982;29;20393;-79
2024/02/03 06:40:08;;;;;;;;;;;;;;;5.73;100.00;100966.44;4924869;29;20366;-79
2024/02/03 06:42:33;;;;;;;;;;;;;;;5.69;100.00;100968.19;4925124;29;20013;-78
2024/02/03 06:44:58;;;;;;;;;;;;;;;5.74;100.00;100968.16;4928378;29;19934;-79
2024/02/03 06:47:23;;;;;;;;;;;;;;;5.62;100.00;100975.22;4928837;29;19919;-79
2024/02/03 06:49:49;;;;;;;;;;;;;;;5.68;100.00;100973.44;4927219;29;19929;-78
2024/02/03 06:52:14;;;;;;;;;;;;;;;5.71;100.00;100981.34;4928993;29;20353;-80
2024/02/03 06:54:39;;;;;;;;;;;;;;;5.71;100.00;100978.69;4928788;29;20347;-78
2024/02/03 06:57:04;;;;;;;;;;;;;;;5.69;100.00;100986.59;4928630;29;19954;-78
2024/02/03 06:59:29;;;;;;;;;;;;;;;5.64;100.00;100983.13;4928469;29;20507;-79
2024/02/03 07:01:55;;;;;;;;;;;;;;;5.64;100.00;100988.38;4928562;29;20434;-78
2024/02/03 07:04:20;;;;;;;;;;;;;;;5.62;100.00;100985.75;4927581;29;19923;-78
2024/02/03 07:06:45;;;;;;;;;;;;;;;5.62;100.00;100993.63;4928205;29;19919;-79
2024/02/03 07:09:11;;;;;;;;;;;;;;;5.62;100.00;100987.50;4928168;29;19923;-79
2024/02/03 07:11:36;;;;;;;;;;;;;;;5.72;100.00;100988.34;4928221;29;19919;-79
2024/02/03 07:14:01;;;;;;;;;;;;;;;5.70;100.00;100984.88;4935060;29;20289;-79
2024/02/03 07:16:27;;;;;;;;;;;;;;;5.72;100.00;100996.25;4928233;29;20367;-79
2024/02/03 07:18:52;;;;;;;;;;;;;;;5.74;100.00;100991.84;4926918;29;19923;-79
2024/02/03 07:21:17;;;;;;;;;;;;;;;5.68;100.00;100990.13;4928252;29;19923;-79
2024/02/03 07:23:42;;;;;;;;;;;;;;;5.71;100.00;100994.47;4928217;29;19987;-79
2024/02/03 07:26:08;;;;;;;;;;;;;;;5.75;100.00;100993.59;4928231;29;20302;-82
2024/02/03 07:28:33;;;;;;;;;;;;;;;5.75;100.00;100990.97;4927772;29;19923;-83
2024/02/03 07:30:58;;;;;;;;;;;;;;;5.75;100.00;101009.38;4928211;29;19923;-83
2024/02/03 07:33:23;;;;;;;;;;;;;;;5.74;100.00;100999.72;4909466;29;19925;-81
2024/02/03 07:35:49;;;;;;;;;;;;;;;5.71;100.00;101008.53;4927656;29;20026;-83
2024/02/03 07:38:14;;;;;;;;;;;;;;;5.74;100.00;101011.13;4927798;29;19923;-83
2024/02/03 07:40:39;;;;;;;;;;;;;;;5.67;100.00;101013.81;4910365;29;19926;-83
2024/02/03 07:43:04;;;;;;;;;;;;;;;5.73;100.00;101011.16;4926817;29;19919;-83
2024/02/03 07:45:30;;;;;;;;;;;;;;;5.70;100.00;101009.41;4927600;29;19919;-82
2024/02/03 07:47:55;;;;;;;;;;;;;;;5.74;100.00;101012.88;4927407;29;19919;-82
2024/02/03 07:50:21;;;;;;;;;;;;;;;5.83;100.00;101004.97;4926661;29;19925;-89
2024/02/03 07:52:46;;;;;;;;;;;;;;;5.82;100.00;101011.09;4910278;29;19987;-83
2024/02/03 07:55:11;;;;;;;;;;;;;;;5.79;100.00;101011.09;4917591;29;19919;-83
2024/02/03 07:57:37;;;;;;;;;;;;;;;5.81;100.00;101014.63;4927743;29;19930;-83
2024/02/03 08:00:02;;;;;;;;;;;;;;;5.73;100.00;101021.69;4909980;29;19919;-83
2024/02/03 08:02:27;;;;;;;;;;;;;;;5.76;100.00;101019.00;4909924;29;19974;-83
2024/02/03 08:04:53;;;;;;;;;;;;;;;5.79;100.00;101025.16;4926634;29;20010;-84
2024/02/03 08:07:19;;;;;;;;;;;;;;;5.81;100.00;101017.25;4927440;29;19962;-81
2024/02/03 08:09:44;;;;;;;;;;;;;;;5.66;100.00;101026.06;4926835;29;19923;-81
2024/02/03 08:12:09;;;;;;;;;;;;;;;5.77;100.00;101020.75;4927425;29;19925;-81
2024/02/03 09:05:09;;;;;;;;;;;;;;;5.66;100.00;100980.47;4869157;29;20030;-82
2024/02/03 09:07:35;;;;;;;;;;;;;;;5.79;100.00;100976.91;4868979;29;20446;-81
2024/02/03 09:10:00;;;;;;;;;;;;;;;5.73;100.00;100982.22;4870019;29;19935;-79
2024/02/03 09:12:26;;;;;;;;;;;;;;;5.79;100.00;100982.16;4869647;29;19971;-82
2024/02/03 09:14:51;;;;;;;;;;;;;;;5.86;100.00;100983.91;4870119;29;19972;-80
2024/02/03 09:17:16;;;;;;;;;;;;;;;5.86;100.00;100980.41;4868094;29;19923;-84
2024/02/03 09:19:41;;;;;;;;;;;;;;;5.82;100.00;100984.78;4869999;29;19931;-82
2024/02/03 09:22:06;;;;;;;;;;;;;;;5.71;100.00;100989.22;4869540;29;19927;-83
2024/02/03 09:24:32;;;;;;;;;;;;;;;5.80;100.00;101000.56;4883724;29;19923;-83
2024/02/03 09:26:57;;;;;;;;;;;;;;;5.74;100.00;100990.06;4869603;29;19926;-85
2024/02/03 09:29:22;;;;;;;;;;;;;;;5.73;100.00;100990.13;4869930;29;19920;-84
2024/02/03 09:31:47;;;;;;;;;;;;;;;5.77;100.00;100997.97;4868258;29;20522;-85
2024/02/03 09:34:13;;;;;;;;;;;;;;;5.86;100.00;100997.06;4869088;29;19928;-84
2024/02/03 09:36:38;;;;;;;;;;;;;;;5.79;100.00;100997.94;4869633;29;19931;-84
2024/02/03 09:39:04;;;;;;;;;;;;;;;5.77;100.00;100999.72;4869759;29;19927;-83
2024/02/03 09:41:29;;;;;;;;;;;;;;;5.77;100.00;101000.59;4868875;29;19924;-84
2024/02/03 09:43:55;;;;;;;;;;;;;;;5.82;100.00;101005.84;4869111;29;19947;-82
2024/02/03 09:46:21;;;;;;;;;;;;;;;5.81;100.00;101012.00;4868866;29;19927;-84
2024/02/03 09:48:46;;;;;;;;;;;;;;;5.87;100.00;101017.25;4867172;29;19924;-84
2024/02/03 09:51:11;;;;;;;;;;;;;;;5.80;100.00;101015.50;4869682;29;19919;-85
2024/02/03 09:53:37;;;;;;;;;;;;;;;5.74;100.00;101031.28;4868850;29;19989;-84
2024/02/03 09:56:02;;;;;;;;;;;;;;;5.81;100.00;101025.16;4868979;29;19962;-85
2024/02/03 09:58:27;;;;;;;;;;;;;;;5.75;100.00;101028.66;4868990;29;19967;-84
2024/02/03 10:00:53;;;;;;;;;;;;;;;5.86;100.00;101019.88;4869855;29;20296;-84
2024/02/03 10:03:19;;;;;;;;;;;;;;;5.82;100.00;101024.25;4876951;29;20339;-87
2024/02/03 10:05:44;;;;;;;;;;;;;;;5.79;100.00;101024.25;4906443;29;19966;-86
2024/02/03 10:08:10;;;;;;;;;;;;;;;5.89;100.00;101030.34;4906745;29;20367;-84
2024/02/03 10:10:35;;;;;;;;;;;;;;;5.81;100.00;101022.53;4906714;29;20394;-83
2024/02/03 10:13:08;;;;;;;;;;;;;;;5.80;100.00;101021.63;4889169;29;20272;-84
2024/02/03 10:15:34;;;;;;;;;;;;;;;5.87;100.00;101027.75;4906253;29;20014;-85
2024/02/03 10:17:59;;;;;;;;;;;;;;;5.82;100.00;101019.88;4906636;29;20388;-85
2024/02/03 10:20:25;;;;;;;;;;;;;;;5.82;100.00;101026.88;4911164;29;20406;-82
2024/02/03 10:22:51;;;;;;;;;;;;;;;5.89;100.00;101025.09;4909857;29;19923;-81
2024/02/03 10:25:16;;;;;;;;;;;;;;;5.87;100.00;101027.75;4909992;29;19927;-85
2024/02/03 10:27:41;;;;;;;;;;;;;;;5.88;100.00;101028.63;4893110;29;19923;-81
2024/02/03 10:30:07;;;;;;;;;;;;;;;5.86;100.00;101026.00;4909791;29;19923;-81
2024/02/03 10:32:32;;;;;;;;;;;;;;;5.91;100.00;101029.47;4909002;29;20395;-82
2024/02/03 10:34:57;;;;;;;;;;;;;;;5.88;100.00;101024.22;4909745;29;19945;-86
2024/02/03 10:37:23;;;;;;;;;;;;;;;5.92;100.00;101025.97;4911133;29;19919;-84
2024/02/03 10:39:48;;;;;;;;;;;;;;;5.92;100.00;101022.44;4909829;29;20006;-82
2024/02/03 10:42:21;;;;;;;;;;;;;;;5.89;100.00;101019.84;4910181;29;19973;-86
2024/02/03 10:44:47;;;;;;;;;;;;;;;5.87;100.00;101014.59;4909837;29;19919;-83
2024/02/03 10:47:12;;;;;;;;;;;;;;;5.83;100.00;101010.22;4908401;29;19930;-83
2024/02/03 10:49:42;;;;;;;;;;;;;;;5.82;100.00;101011.09;4908480;29;20379;-84
2024/02/03 10:52:09;;;;;;;;;;;;;;;5.93;100.00;101006.66;4909256;29;19923;-82
2024/02/03 10:54:36;;;;;;;;;;;;;;;5.93;100.00;101009.28;4909782;29;20327;-82
2024/02/03 10:57:03;;;;;;;;;;;;;;;5.97;100.00;101011.06;4893236;29;19923;-83
2024/02/03 10:59:28;;;;;;;;;;;;;;;5.94;100.00;101018.09;4909881;29;19927;-85
2024/02/03 11:01:53;;;;;;;;;;;;;;;5.94;100.00;101016.31;4908690;29;19926;-84
2024/02/03 11:04:19;;;;;;;;;;;;;;;5.96;100.00;101004.06;4908728;29;19927;-82
2024/02/03 11:06:47;;;;;;;;;;;;;;;5.93;100.00;101009.28;4909783;29;19926;-84
2024/02/03 11:09:20;;;;;;;;;;;;;;;5.97;100.00;101002.31;4909404;29;20446;-84
2024/02/03 11:11:46;;;;;;;;;;;;;;;5.91;100.00;100997.91;4909433;29;19923;-88
2024/02/03 11:14:15;;;;;;;;;;;;;;;5.98;100.00;100994.41;4892439;29;19930;-82
2024/02/03 11:16:41;;;;;;;;;;;;;;;5.96;100.00;100995.25;4908864;29;20010;-84
2024/02/03 11:19:10;;;;;;;;;;;;;;;5.90;100.00;100987.41;4909594;29;20018;-82
2024/02/03 11:21:42;;;;;;;;;;;;;;;5.94;100.00;100984.75;4909033;29;20371;-83
2024/02/03 11:24:08;;;;;;;;;;;;;;;5.86;100.00;100978.66;4908923;29;19919;-81
2024/02/03 11:26:34;;;;;;;;;;;;;;;5.83;100.00;100976.91;4909226;29;19923;-81
2024/02/03 11:28:59;;;;;;;;;;;;;;;5.93;100.00;100982.13;4908173;29;19930;-83
2024/02/03 11:31:26;;;;;;;;;;;;;;;5.87;100.00;100967.25;4908702;29;19970;-81
2024/02/03 11:33:52;;;;;;;;;;;;;;;5.95;100.00;100978.63;4908217;29;19924;-81
2024/02/03 11:36:17;;;;;;;;;;;;;;;6.03;100.00;100977.72;4908818;29;19939;-82
2024/02/03 11:38:43;;;;;;;;;;;;;;;6.04;100.00;100963.69;4908750;29;19962;-86
2024/02/03 11:41:08;;;;;;;;;;;;;;;5.96;100.00;100955.78;4909022;29;19923;-82
2024/02/03 11:43:34;;;;;;;;;;;;;;;6.03;100.00;100954.03;4908592;29;19923;-83
2024/02/03 11:46:03;;;;;;;;;;;;;;;5.95;100.00;100957.56;4909198;29;20367;-84
2024/02/03 11:48:29;;;;;;;;;;;;;;;5.91;100.00;100953.19;4907200;29;19924;-85
2024/02/03 11:50:54;;;;;;;;;;;;;;;5.94;100.00;100955.81;4908570;29;19930;-81
2024/02/03 11:53:26;;;;;;;;;;;;;;;5.85;100.00;100955.84;4898606;29;19946;-82
2024/02/03 11:55:53;;;;;;;;;;;;;;;5.92;100.00;100962.84;4914077;29;19930;-81
2024/02/03 11:58:18;;;;;;;;;;;;;;;5.95;100.00;100952.31;4908282;29;19923;-83
2024/02/03 12:00:43;;;;;;;;;;;;;;;5.88;100.00;100949.72;4908312;29;19920;-84
2024/02/03 12:03:09;;;;;;;;;;;;;;;5.92;100.00;100946.16;4906997;29;20390;-83
2024/02/03 12:05:34;;;;;;;;;;;;;;;5.98;100.00;100947.06;4908524;29;19919;-86
2024/02/03 12:08:00;;;;;;;;;;;;;;;6.02;100.00;100944.41;4908128;29;20355;-84
2024/02/03 12:10:26;;;;;;;;;;;;;;;5.98;100.00;100946.16;4907778;29;19927;-85
2024/02/03 12:12:53;;;;;;;;;;;;;;;6.04;100.00;100945.28;4908079;29;19919;-86
2024/02/03 12:15:18;;;;;;;;;;;;;;;6.00;100.00;100940.03;4904833;29;20375;-86
2024/02/03 12:17:45;;;;;;;;;;;;;;;6.10;100.00;100939.97;4906915;29;19923;-85
2024/02/03 12:20:23;;;;;;;;;;;;;;;6.03;100.00;100933.88;4908609;29;19926;-84
2024/02/03 12:22:49;;;;;;;;;;;;;;;6.02;100.00;100936.53;4907695;29;19934;-85
2024/02/03 12:25:15;;;;;;;;;;;;;;;6.04;100.00;100932.97;4908107;29;19927;-84
2024/02/03 12:27:40;;;;;;;;;;;;;;;6.01;100.00;100935.63;4907377;29;19923;-84
2024/02/03 12:30:14;;;;;;;;;;;;;;;5.97;100.00;100929.50;4908284;29;19966;-88
2024/02/03 12:32:39;;;;;;;;;;;;;;;5.99;100.00;100930.38;4906896;29;19970;-83
2024/02/03 12:35:04;;;;;;;;;;;;;;;5.96;100.00;100922.50;4907671;29;19955;-83
2024/02/03 12:37:30;;;;;;;;;;;;;;;6.05;100.00;100916.31;4907744;29;19919;-79
2024/02/03 12:39:55;;;;;;;;;;;;;;;6.06;100.00;100914.56;4908272;29;19931;-84
2024/02/03 12:42:20;;;;;;;;;;;;;;;6.03;100.00;100914.56;4889803;29;19923;-79
2024/02/03 12:44:46;;;;;;;;;;;;;;;5.99;100.00;100911.94;4907235;29;19924;-81
2024/02/03 12:47:11;;;;;;;;;;;;;;;5.97;100.00;100918.13;4906656;29;20283;-81
2024/02/03 12:49:36;;;;;;;;;;;;;;;5.97;100.00;100919.00;4890478;29;20271;-82
2024/02/03 12:52:03;;;;;;;;;;;;;;;6.02;100.00;100913.69;4907522;29;19930;-82
2024/02/03 12:54:28;;;;;;;;;;;;;;;6.04;100.00;100909.28;4907565;29;19923;-82
2024/02/03 12:56:53;;;;;;;;;;;;;;;6.06;100.00;100901.41;4907431;29;19923;-83
2024/02/03 12:59:19;;;;;;;;;;;;;;;6.05;100.00;100903.16;4907258;29;20368;-85
2024/02/03 13:01:44;;;;;;;;;;;;;;;6.03;100.00;100910.19;4906092;29;20394;-84
2024/02/03 13:04:09;;;;;;;;;;;;;;;5.99;100.00;100904.06;4906946;29;19934;-84
2024/02/03 13:06:34;;;;;;;;;;;;;;;6.05;100.00;100904.91;4906814;29;19923;-85
2024/02/03 13:09:00;;;;;;;;;;;;;;;5.94;100.00;100900.56;4907357;29;19927;-86
2024/02/03 13:11:25;;;;;;;;;;;;;;;5.96;100.00;100896.19;4906984;29;19923;-83
2024/02/03 13:13:50;;;;;;;;;;;;;;;5.95;100.00;100898.78;4907458;29;19923;-82
2024/02/03 13:16:15;;;;;;;;;;;;;;;5.98;100.00;100893.53;4906610;29;19923;-82
2024/02/03 13:18:41;;;;;;;;;;;;;;;6.04;100.00;100890.88;4888858;29;19974;-82
2024/02/03 13:21:06;;;;;;;;;;;;;;;6.04;100.00;100890.00;4906704;29;20026;-83
2024/02/03 13:23:31;;;;;;;;;;;;;;;5.97;100.00;100887.41;4906361;29;20014;-84
2024/02/03 13:25:56;;;;;;;;;;;;;;;6.01;100.00;100883.00;4907016;29;19919;-84
2024/02/03 13:28:22;;;;;;;;;;;;;;;5.99;100.00;100888.28;4889082;29;19927;-84
2024/02/03 13:30:47;;;;;;;;;;;;;;;6.02;100.00;100894.44;4907268;29;20002;-83
2024/02/03 13:33:14;;;;;;;;;;;;;;;6.06;100.00;100881.22;4889120;29;19988;-83
2024/02/03 13:35:40;;;;;;;;;;;;;;;6.03;100.00;100896.16;4906350;29;19934;-83
2024/02/03 13:38:05;;;;;;;;;;;;;;;6.08;100.00;100887.34;4905183;29;19931;-82
2024/02/03 13:40:31;;;;;;;;;;;;;;;6.03;100.00;100883.88;4906869;29;19919;-82
2024/02/03 13:42:56;;;;;;;;;;;;;;;6.05;100.00;100886.47;4889601;29;19946;-82
2024/02/03 13:45:21;;;;;;;;;;;;;;;6.06;100.00;100889.09;4906869;29;19961;-91
2024/02/03 13:47:49;;;;;;;;;;;;;;;6.00;100.00;100881.28;4906635;29;19919;-86
2024/02/03 13:50:15;;;;;;;;;;;;;;;5.95;100.00;100883.91;4906406;29;20014;-80
2024/02/03 13:52:40;;;;;;;;;;;;;;;6.02;100.00;100879.50;4905739;29;20446;-84
2024/02/03 13:55:05;;;;;;;;;;;;;;;6.00;100.00;100878.66;4889478;29;19920;-84
2024/02/03 13:57:31;;;;;;;;;;;;;;;6.03;100.00;100869.84;4890133;29;20789;-80
2024/02/03 13:59:56;;;;;;;;;;;;;;;6.06;100.00;100870.69;4889480;29;19923;-82
2024/02/03 14:02:21;;;;;;;;;;;;;;;6.05;100.00;100874.22;4885927;29;20322;-83
2024/02/03 14:04:46;;;;;;;;;;;;;;;6.03;100.00;100875.09;4885474;29;19928;-87
2024/02/03 14:07:12;;;;;;;;;;;;;;;6.07;100.00;100872.44;4902293;29;20014;-82
2024/02/03 14:09:37;;;;;;;;;;;;;;;6.15;100.00;100867.13;4889460;29;19926;-82
2024/02/03 14:12:03;;;;;;;;;;;;;;;6.11;100.00;100862.75;4906434;29;19927;-82
2024/02/03 14:14:29;;;;;;;;;;;;;;;6.05;100.00;100863.69;4889726;29;19927;-80
2024/02/03 14:16:54;;;;;;;;;;;;;;;6.08;100.00;100866.31;4888303;29;19929;-86
2024/02/03 14:19:19;;;;;;;;;;;;;;;6.08;100.00;100862.78;4905878;29;19930;-84
2024/02/03 14:21:45;;;;;;;;;;;;;;;6.10;100.00;100861.03;4905624;29;20375;-83
2024/02/03 14:24:11;;;;;;;;;;;;;;;6.09;100.00;100865.41;4906164;29;20035;-83
2024/02/03 14:26:37;;;;;;;;;;;;;;;6.07;100.00;100871.56;4906329;29;20010;-83
2024/02/03 14:29:02;;;;;;;;;;;;;;;6.10;100.00;100867.16;4905977;29;19927;-82
2024/02/03 14:31:27;;;;;;;;;;;;;;;6.06;100.00;100868.06;4905913;29;20384;-83
2024/02/03 14:33:53;;;;;;;;;;;;;;;6.10;100.00;100871.56;4905233;29;19923;-80
2024/02/03 14:36:18;;;;;;;;;;;;;;;6.14;100.00;100871.53;4905454;29;19933;-83
2024/02/03 14:38:45;;;;;;;;;;;;;;;6.10;100.00;100869.78;4888769;29;20010;-82
2024/02/03 14:41:10;;;;;;;;;;;;;;;6.10;100.00;100871.56;4889374;29;19923;-84
2024/02/03 14:43:36;;;;;;;;;;;;;;;6.05;100.00;100860.16;4889149;29;19919;-83
2024/02/03 14:46:01;;;;;;;;;;;;;;;6.10;100.00;100859.25;4905947;29;20022;-84
2024/02/03 14:48:26;;;;;;;;;;;;;;;6.06;100.00;100854.91;4904610;29;19923;-81
2024/02/03 14:50:52;;;;;;;;;;;;;;;6.08;100.00;100862.78;4906221;29;19922;-84
2024/02/03 14:53:17;;;;;;;;;;;;;;;6.03;100.00;100867.22;4905902;29;19931;-81
2024/02/03 14:55:43;;;;;;;;;;;;;;;6.06;100.00;100864.56;4906126;29;19978;-81
2024/02/03 14:58:08;;;;;;;;;;;;;;;6.08;100.00;100865.41;4906249;29;19936;-81
2024/02/03 15:00:33;;;;;;;;;;;;;;;6.10;100.00;100859.25;4906140;29;19923;-82
2024/02/03 15:02:58;;;;;;;;;;;;;;;6.19;100.00;100860.97;4904330;29;19938;-81
2024/02/03 15:05:23;;;;;;;;;;;;;;;6.18;100.00;100853.94;4907734;29;19920;-80
2024/02/03 15:07:49;;;;;;;;;;;;;;;6.12;100.00;100854.00;4909575;29;19927;-80
2024/02/03 15:10:14;;;;;;;;;;;;;;;6.16;100.00;100863.63;4909177;29;20398;-80
2024/02/03 15:12:39;;;;;;;;;;;;;;;6.09;100.00;100867.16;4909163;29;19923;-80
2024/02/03 15:15:05;;;;;;;;;;;;;;;6.10;100.00;100864.53;4910024;29;19970;-81
2024/02/03 15:17:31;;;;;;;;;;;;;;;6.06;100.00;100867.19;4908014;29;19919;-81
2024/02/03 15:19:56;;;;;;;;;;;;;;;6.03;100.00;100867.22;4908988;29;20038;-80
2024/02/03 15:22:21;;;;;;;;;;;;;;;5.97;100.00;100861.09;4909241;29;19924;-80
2024/02/03 15:24:47;;;;;;;;;;;;;;;6.00;100.00;100866.34;4908835;29;19927;-80
2024/02/03 15:27:13;;;;;;;;;;;;;;;6.00;100.00;100878.66;4907827;29;20339;-80
2024/02/03 15:29:38;;;;;;;;;;;;;;;5.99;100.00;100880.38;4908843;29;19927;-79
2024/02/03 15:32:03;;;;;;;;;;;;;;;5.99;100.00;100875.13;4908386;29;20313;-79
2024/02/03 15:34:29;;;;;;;;;;;;;;;6.03;100.00;100872.47;4891959;29;19929;-80
2024/02/03 15:36:58;;;;;;;;;;;;;;;5.99;100.00;100880.38;4909182;29;19965;-81
2024/02/03 15:39:24;;;;;;;;;;;;;;;5.94;100.00;100862.88;4908759;29;20287;-81
2024/02/03 15:41:49;;;;;;;;;;;;;;;5.97;100.00;100876.91;4892123;29;19943;-87
2024/02/03 15:44:15;;;;;;;;;;;;;;;5.99;100.00;100874.25;4909499;29;19923;-80
2024/02/03 15:46:40;;;;;;;;;;;;;;;5.97;100.00;100879.53;4908208;29;19927;-82
2024/02/03 15:49:05;;;;;;;;;;;;;;;6.00;100.00;100879.50;4908158;29;20265;-82
2024/02/03 15:51:30;;;;;;;;;;;;;;;5.99;100.00;100875.13;4908451;29;19920;-86
2024/02/03 15:53:56;;;;;;;;;;;;;;;5.97;100.00;100883.94;4908464;29;19962;-82
2024/02/03 15:56:21;;;;;;;;;;;;;;;6.03;100.00;100883.00;4908368;29;19930;-83
2024/02/03 15:58:46;;;;;;;;;;;;;;;6.00;100.00;100884.78;4908640;29;20462;-84
2024/02/03 16:01:11;;;;;;;;;;;;;;;6.03;100.00;100881.25;4907448;29;19945;-83
2024/02/03 16:03:37;;;;;;;;;;;;;;;6.00;100.00;100887.41;4907002;29;19924;-84
2024/02/03 16:06:02;;;;;;;;;;;;;;;5.94;100.00;100882.13;4908252;29;19951;-83
2024/02/03 16:08:27;;;;;;;;;;;;;;;5.96;100.00;100888.28;4908469;29;20383;-83
2024/02/03 16:10:53;;;;;;;;;;;;;;;6.05;100.00;100881.22;4891783;29;19923;-83
2024/02/03 16:13:18;;;;;;;;;;;;;;;6.06;100.00;100875.94;4908329;29;20030;-84
2024/02/03 16:15:43;;;;;;;;;;;;;;;6.10;100.00;100882.94;4907363;29;19923;-88
2024/02/03 16:18:10;;;;;;;;;;;;;;;6.08;100.00;100873.31;4890344;29;20371;-83
2024/02/03 16:20:36;;;;;;;;;;;;;;;6.11;100.00;100868.03;4891192;29;19970;-84
2024/02/03 16:23:01;;;;;;;;;;;;;;;6.10;100.00;100869.78;4891545;29;20347;-84
2024/02/03 16:25:26;;;;;;;;;;;;;;;6.11;100.00;100868.03;4908181;29;19923;-84
2024/02/03 16:27:52;;;;;;;;;;;;;;;6.10;100.00;100869.78;4889978;29;20452;-83
2024/02/03 16:30:17;;;;;;;;;;;;;;;6.15;100.00;100872.38;4908297;29;19979;-84
2024/02/03 16:32:43;;;;;;;;;;;;;;;6.07;100.00;100868.94;4889518;29;20275;-84
2024/02/03 16:35:08;;;;;;;;;;;;;;;6.10;100.00;100871.56;4908171;29;20370;-84
2024/02/03 16:37:33;;;;;;;;;;;;;;;6.14;100.00;100873.25;4891303;29;19958;-85
2024/02/03 16:39:58;;;;;;;;;;;;;;;6.12;100.00;100869.78;4891147;29;19923;-85
2024/02/03 16:42:24;;;;;;;;;;;;;;;6.06;100.00;100880.34;4890468;29;19927;-83
2024/02/03 16:44:49;;;;;;;;;;;;;;;6.16;100.00;100879.41;4907771;29;19919;-88
2024/02/03 16:47:14;;;;;;;;;;;;;;;6.14;100.00;100875.91;4906413;29;19923;-84
2024/02/03 16:49:40;;;;;;;;;;;;;;;6.11;100.00;100879.44;4906641;29;19920;-84
2024/02/03 16:52:05;;;;;;;;;;;;;;;6.09;100.00;100875.06;4907399;29;19991;-83
2024/02/03 16:54:30;;;;;;;;;;;;;;;6.16;100.00;100882.03;4907765;29;19919;-83
2024/02/03 16:56:55;;;;;;;;;;;;;;;6.09;100.00;100890.84;4907672;29;19919;-83
2024/02/03 16:59:21;;;;;;;;;;;;;;;6.09;100.00;100885.59;4907221;29;19968;-83
2024/02/03 17:01:47;;;;;;;;;;;;;;;6.15;100.00;100890.81;4889260;29;20002;-83
2024/02/03 17:04:18;;;;;;;;;;;;;;;6.05;100.00;100886.47;4907973;29;20383;-83
2024/02/03 17:06:43;;;;;;;;;;;;;;;6.12;100.00;100888.19;4907018;29;19970;-83
2024/02/03 17:09:09;;;;;;;;;;;;;;;6.06;100.00;100881.22;4907446;29;19966;-83
2024/02/03 17:11:34;;;;;;;;;;;;;;;6.14;100.00;100881.16;4890801;29;19923;-84
2024/02/03 17:13:59;;;;;;;;;;;;;;;6.20;100.00;100880.25;4907179;29;20635;-83
2024/02/03 17:16:25;;;;;;;;;;;;;;;6.13;100.00;100884.69;4907178;29;19923;-87
2024/02/03 17:18:50;;;;;;;;;;;;;;;6.14;100.00;100876.78;4905875;29;20387;-83
2024/02/03 17:21:15;;;;;;;;;;;;;;;6.17;100.00;100889.03;4890309;29;19987;-83
2024/02/03 17:23:40;;;;;;;;;;;;;;;6.21;100.00;100885.50;4907072;29;19927;-83
2024/02/03 17:26:06;;;;;;;;;;;;;;;6.21;100.00;100885.50;4889981;29;20374;-85
2024/02/03 17:28:32;;;;;;;;;;;;;;;6.19;100.00;100887.28;4906604;29;19926;-83
2024/02/03 17:30:57;;;;;;;;;;;;;;;6.10;100.00;100896.09;4890283;29;19923;-86
2024/02/03 17:33:24;;;;;;;;;;;;;;;6.14;100.00;100904.84;4905692;29;19920;-85
2024/02/03 17:35:49;;;;;;;;;;;;;;;6.20;100.00;100899.53;4889661;29;19923;-86
2024/02/03 17:38:14;;;;;;;;;;;;;;;6.18;100.00;100901.31;4907259;29;20335;-85
2024/02/03 17:40:39;;;;;;;;;;;;;;;6.17;100.00;100897.81;4907217;29;19920;-86
2024/02/03 17:43:05;;;;;;;;;;;;;;;6.14;100.00;100895.22;4906653;29;19919;-82
2024/02/03 17:45:30;;;;;;;;;;;;;;;6.22;100.00;100903.03;4906698;29;19923;-83
2024/02/03 17:47:55;;;;;;;;;;;;;;;6.22;100.00;100900.41;4905761;29;19920;-86
2024/02/03 17:50:21;;;;;;;;;;;;;;;6.26;100.00;100904.75;4906652;29;20026;-85
2024/02/03 17:52:46;;;;;;;;;;;;;;;6.21;100.00;100901.31;4906248;29;19969;-85
2024/02/03 17:55:12;;;;;;;;;;;;;;;6.12;100.00;100898.72;4906391;29;19930;-84
2024/02/03 17:57:38;;;;;;;;;;;;;;;6.10;100.00;100901.38;4907119;29;20283;-85
2024/02/03 18:00:03;;;;;;;;;;;;;;;6.20;100.00;100896.03;4889585;29;19969;-85
2024/02/03 18:02:29;;;;;;;;;;;;;;;6.20;100.00;100894.28;4905295;29;19990;-84
2024/02/03 18:04:55;;;;;;;;;;;;;;;6.18;100.00;100891.66;4906195;29;20376;-84
2024/02/03 18:07:20;;;;;;;;;;;;;;;6.08;100.00;100903.16;4906834;29;19923;-83
2024/02/03 18:09:46;;;;;;;;;;;;;;;6.15;100.00;100901.34;4906182;29;20303;-81
2024/02/03 18:12:12;;;;;;;;;;;;;;;6.13;100.00;100901.34;4906329;29;19923;-83
2024/02/03 18:14:37;;;;;;;;;;;;;;;6.17;100.00;100899.56;4906733;29;19923;-83
2024/02/03 18:17:03;;;;;;;;;;;;;;;6.17;100.00;100887.28;4905145;29;20661;-83
2024/02/03 18:19:28;;;;;;;;;;;;;;;6.19;100.00;100887.28;4906266;29;19923;-83
2024/02/03 18:21:53;;;;;;;;;;;;;;;6.19;100.00;100889.91;4888939;29;19927;-83
2024/02/03 18:24:20;;;;;;;;;;;;;;;6.20;100.00;100891.66;4889664;29;19942;-84
2024/02/03 18:26:46;;;;;;;;;;;;;;;6.23;100.00;100896.88;4889360;29;20282;-85
2024/02/03 18:29:11;;;;;;;;;;;;;;;6.22;100.00;100886.38;4889150;29;19924;-84
2024/02/03 18:31:36;;;;;;;;;;;;;;;6.24;100.00;100889.84;4906239;29;20606;-82
2024/02/03 18:34:01;;;;;;;;;;;;;;;6.22;100.00;100894.25;4905397;29;20104;-84
2024/02/03 18:36:27;;;;;;;;;;;;;;;6.26;100.00;100899.50;4906087;29;20018;-84
2024/02/03 18:38:53;;;;;;;;;;;;;;;6.32;100.00;100903.88;4905855;29;19931;-84
2024/02/03 18:41:18;;;;;;;;;;;;;;;6.57;100.00;100904.50;4910200;29;19920;-85
2024/02/03 18:43:43;;;;;;;;;;;;;;;6.26;100.00;100899.50;4892948;29;20011;-85